sensor_id;sensor_type;location;lat;lon;timestamp;temperature;humidity
32877;DHT22;19226;51.600;8.034;2023-04-15T00:01:38;9.30;99.90
32877;DHT22;19226;51.600;8.034;2023-04-15T00:04:23;9.20;99.90
32877;DHT22;19226;51.600;8.034;2023-04-15T00:07:07;9.20;99.90
32877;DHT22;19226;51.600;8.034;2023-04-15T00:09:52;9.20;99.90
32877;DHT22;19226;51.600;8.034;2023-04-15T00:12:38;9.10;99.90
32877;DHT22;19226;51.600;8.034;2023-04-15T00:15:23;9.00;99.90
32877;DHT22;19226;51.600;8.034;2023-04-15T00:18:08;9.00;99.90
32877;DHT22;19226;51.600;8.034;2023-04-15T00:20:52;8.90;99.90
32877;DHT22;19226;51.600;8.034;2023-04-15T00:23:37;8.90;99.90
32877;DHT22;19226;51.600;8.034;2023-04-15T00:26:21;8.90;99.90
32877;DHT22;19226;51.600;8.034;2023-04-15T00:29:07;8.80;99.90
32877;DHT22;19226;51.600;8.034;2023-04-15T00:31:53;8.80;99.90
32877;DHT22;19226;51.600;8.034;2023-04-15T00:34:38;8.70;99.90
32877;DHT22;19226;51.600;8.034;2023-04-15T00:37:22;8.70;99.90
32877;DHT22;19226;51.600;8.034;2023-04-15T00:40:11;8.60;99.90
32877;DHT22;19226;51.600;8.034;2023-04-15T00:42:57;8.50;99.90
32877;DHT22;19226;51.600;8.034;2023-04-15T00:45:41;8.50;99.90
32877;DHT22;19226;51.600;8.034;2023-04-15T00:48:27;8.50;99.90
32877;DHT22;19226;51.600;8.034;2023-04-15T00:51:12;8.40;99.90
32877;DHT22;19226;51.600;8.034;2023-04-15T00:53:59;8.40;99.90
32877;DHT22;19226;51.600;8.034;2023-04-15T00:56:43;8.40;99.90
32877;DHT22;19226;51.600;8.034;2023-04-15T00:59:29;8.30;99.90
32877;DHT22;19226;51.600;8.034;2023-04-15T01:02:14;8.20;99.90
32877;DHT22;19226;51.600;8.034;2023-04-15T01:04:58;8.20;99.90
32877;DHT22;19226;51.600;8.034;2023-04-15T01:07:43;8.20;99.90
32877;DHT22;19226;51.600;8.034;2023-04-15T01:10:27;8.10;99.90
32877;DHT22;19226;51.600;8.034;2023-04-15T01:13:12;8.10;99.90
32877;DHT22;19226;51.600;8.034;2023-04-15T01:15:57;8.10;99.90
32877;DHT22;19226;51.600;8.034;2023-04-15T01:18:41;8.10;99.90
32877;DHT22;19226;51.600;8.034;2023-04-15T01:21:26;8.00;99.90
32877;DHT22;19226;51.600;8.034;2023-04-15T01:24:12;8.00;99.90
32877;DHT22;19226;51.600;8.034;2023-04-15T01:26:59;8.00;99.90
32877;DHT22;19226;51.600;8.034;2023-04-15T01:29:44;7.90;99.90
32877;DHT22;19226;51.600;8.034;2023-04-15T01:32:29;7.90;99.90
32877;DHT22;19226;51.600;8.034;2023-04-15T01:35:14;7.90;99.90
32877;DHT22;19226;51.600;8.034;2023-04-15T01:38:09;7.90;99.90
32877;DHT22;19226;51.600;8.034;2023-04-15T01:40:55;7.80;99.90
32877;DHT22;19226;51.600;8.034;2023-04-15T01:43:42;7.80;99.90
32877;DHT22;19226;51.600;8.034;2023-04-15T01:46:26;7.70;99.90
32877;DHT22;19226;51.600;8.034;2023-04-15T01:49:11;7.70;99.90
32877;DHT22;19226;51.600;8.034;2023-04-15T01:51:56;7.70;99.90
32877;DHT22;19226;51.600;8.034;2023-04-15T01:54:41;7.70;99.90
32877;DHT22;19226;51.600;8.034;2023-04-15T01:57:25;7.60;99.90
32877;DHT22;19226;51.600;8.034;2023-04-15T02:00:10;7.60;99.90
32877;DHT22;19226;51.600;8.034;2023-04-15T02:02:58;7.50;99.90
32877;DHT22;19226;51.600;8.034;2023-04-15T02:05:43;7.50;99.90
32877;DHT22;19226;51.600;8.034;2023-04-15T02:08:28;7.50;99.90
32877;DHT22;19226;51.600;8.034;2023-04-15T02:11:13;7.50;99.90
32877;DHT22;19226;51.600;8.034;2023-04-15T02:13:57;7.40;99.90
32877;DHT22;19226;51.600;8.034;2023-04-15T02:16:44;7.40;99.90
32877;DHT22;19226;51.600;8.034;2023-04-15T02:19:28;7.40;99.90
32877;DHT22;19226;51.600;8.034;2023-04-15T02:22:13;7.30;99.90
32877;DHT22;19226;51.600;8.034;2023-04-15T02:25:03;7.30;99.90
32877;DHT22;19226;51.600;8.034;2023-04-15T02:27:50;7.20;99.90
32877;DHT22;19226;51.600;8.034;2023-04-15T02:30:34;7.20;99.90
32877;DHT22;19226;51.600;8.034;2023-04-15T02:33:20;7.20;99.90
32877;DHT22;19226;51.600;8.034;2023-04-15T02:36:05;7.20;99.90
32877;DHT22;19226;51.600;8.034;2023-04-15T02:38:51;7.20;99.90
32877;DHT22;19226;51.600;8.034;2023-04-15T02:41:35;7.20;99.90
32877;DHT22;19226;51.600;8.034;2023-04-15T02:44:21;7.10;99.90
32877;DHT22;19226;51.600;8.034;2023-04-15T02:47:10;7.10;99.90
32877;DHT22;19226;51.600;8.034;2023-04-15T02:49:55;7.10;99.90
32877;DHT22;19226;51.600;8.034;2023-04-15T02:52:40;7.00;99.90
32877;DHT22;19226;51.600;8.034;2023-04-15T02:55:26;7.00;99.90
32877;DHT22;19226;51.600;8.034;2023-04-15T02:58:11;7.00;99.90
32877;DHT22;19226;51.600;8.034;2023-04-15T03:00:55;7.00;99.90
32877;DHT22;19226;51.600;8.034;2023-04-15T03:03:40;7.00;99.90
32877;DHT22;19226;51.600;8.034;2023-04-15T03:06:25;7.00;99.90
32877;DHT22;19226;51.600;8.034;2023-04-15T03:09:09;6.90;99.90
32877;DHT22;19226;51.600;8.034;2023-04-15T03:11:55;6.90;99.90
32877;DHT22;19226;51.600;8.034;2023-04-15T03:14:41;6.80;99.90
32877;DHT22;19226;51.600;8.034;2023-04-15T03:17:26;6.70;99.90
32877;DHT22;19226;51.600;8.034;2023-04-15T03:20:10;6.70;99.90
32877;DHT22;19226;51.600;8.034;2023-04-15T03:22:55;6.60;99.90
32877;DHT22;19226;51.600;8.034;2023-04-15T03:25:41;6.60;99.90
32877;DHT22;19226;51.600;8.034;2023-04-15T03:28:26;6.60;99.90
32877;DHT22;19226;51.600;8.034;2023-04-15T03:31:11;6.50;99.90
32877;DHT22;19226;51.600;8.034;2023-04-15T03:33:56;6.50;99.90
32877;DHT22;19226;51.600;8.034;2023-04-15T03:36:41;6.40;99.90
32877;DHT22;19226;51.600;8.034;2023-04-15T03:39:25;6.30;99.90
32877;DHT22;19226;51.600;8.034;2023-04-15T03:42:10;6.20;99.90
32877;DHT22;19226;51.600;8.034;2023-04-15T03:44:55;6.10;99.90
32877;DHT22;19226;51.600;8.034;2023-04-15T03:47:39;6.10;99.90
32877;DHT22;19226;51.600;8.034;2023-04-15T03:50:24;6.10;99.90
32877;DHT22;19226;51.600;8.034;2023-04-15T03:53:08;6.10;99.90
32877;DHT22;19226;51.600;8.034;2023-04-15T03:55:53;6.10;99.90
32877;DHT22;19226;51.600;8.034;2023-04-15T03:58:38;6.10;99.90
32877;DHT22;19226;51.600;8.034;2023-04-15T04:01:22;6.10;99.90
32877;DHT22;19226;51.600;8.034;2023-04-15T04:04:07;6.00;99.90
32877;DHT22;19226;51.600;8.034;2023-04-15T04:06:51;6.00;99.90
32877;DHT22;19226;51.600;8.034;2023-04-15T04:09:36;6.00;99.90
32877;DHT22;19226;51.600;8.034;2023-04-15T04:12:23;6.00;99.90
32877;DHT22;19226;51.600;8.034;2023-04-15T04:15:08;5.90;99.90
32877;DHT22;19226;51.600;8.034;2023-04-15T04:17:52;5.90;99.90
32877;DHT22;19226;51.600;8.034;2023-04-15T04:20:37;5.90;99.90
32877;DHT22;19226;51.600;8.034;2023-04-15T04:23:22;5.80;99.90
32877;DHT22;19226;51.600;8.034;2023-04-15T04:26:06;5.80;99.90
32877;DHT22;19226;51.600;8.034;2023-04-15T04:28:51;5.80;99.90
32877;DHT22;19226;51.600;8.034;2023-04-15T04:31:36;5.80;99.90
32877;DHT22;19226;51.600;8.034;2023-04-15T04:34:20;5.80;99.90
32877;DHT22;19226;51.600;8.034;2023-04-15T04:37:05;5.70;99.90
32877;DHT22;19226;51.600;8.034;2023-04-15T04:39:50;5.80;99.90
32877;DHT22;19226;51.600;8.034;2023-04-15T04:42:34;5.80;99.90
32877;DHT22;19226;51.600;8.034;2023-04-15T04:45:19;5.80;99.90
32877;DHT22;19226;51.600;8.034;2023-04-15T04:48:04;5.80;99.90
32877;DHT22;19226;51.600;8.034;2023-04-15T04:50:50;5.80;99.90
32877;DHT22;19226;51.600;8.034;2023-04-15T04:53:34;5.80;99.90
32877;DHT22;19226;51.600;8.034;2023-04-15T04:56:20;5.80;99.90
32877;DHT22;19226;51.600;8.034;2023-04-15T04:59:05;5.80;99.90
32877;DHT22;19226;51.600;8.034;2023-04-15T05:01:50;5.80;99.90
32877;DHT22;19226;51.600;8.034;2023-04-15T05:04:35;5.80;99.90
32877;DHT22;19226;51.600;8.034;2023-04-15T05:07:20;5.90;99.90
32877;DHT22;19226;51.600;8.034;2023-04-15T05:10:05;5.80;99.90
32877;DHT22;19226;51.600;8.034;2023-04-15T05:12:50;5.80;99.90
32877;DHT22;19226;51.600;8.034;2023-04-15T05:15:35;5.80;99.90
32877;DHT22;19226;51.600;8.034;2023-04-15T05:18:22;5.70;99.90
32877;DHT22;19226;51.600;8.034;2023-04-15T05:21:07;5.70;99.90
32877;DHT22;19226;51.600;8.034;2023-04-15T05:23:51;5.80;99.90
32877;DHT22;19226;51.600;8.034;2023-04-15T05:26:36;5.70;99.90
32877;DHT22;19226;51.600;8.034;2023-04-15T05:29:20;5.70;99.90
32877;DHT22;19226;51.600;8.034;2023-04-15T05:32:05;5.60;99.90
32877;DHT22;19226;51.600;8.034;2023-04-15T05:34:50;5.70;99.90
32877;DHT22;19226;51.600;8.034;2023-04-15T05:37:35;5.70;99.90
32877;DHT22;19226;51.600;8.034;2023-04-15T05:40:20;5.80;99.90
32877;DHT22;19226;51.600;8.034;2023-04-15T05:43:04;5.70;99.90
32877;DHT22;19226;51.600;8.034;2023-04-15T05:45:49;5.80;99.90
32877;DHT22;19226;51.600;8.034;2023-04-15T05:48:33;5.90;99.90
32877;DHT22;19226;51.600;8.034;2023-04-15T05:51:18;6.00;99.90
32877;DHT22;19226;51.600;8.034;2023-04-15T05:54:02;6.00;99.90
32877;DHT22;19226;51.600;8.034;2023-04-15T05:56:47;6.10;99.90
32877;DHT22;19226;51.600;8.034;2023-04-15T05:59:31;6.10;99.90
32877;DHT22;19226;51.600;8.034;2023-04-15T06:02:16;6.20;99.90
32877;DHT22;19226;51.600;8.034;2023-04-15T06:05:01;6.20;99.90
32877;DHT22;19226;51.600;8.034;2023-04-15T06:07:46;6.30;99.90
32877;DHT22;19226;51.600;8.034;2023-04-15T06:10:31;6.30;99.90
32877;DHT22;19226;51.600;8.034;2023-04-15T06:13:19;6.40;99.90
32877;DHT22;19226;51.600;8.034;2023-04-15T06:16:04;6.40;99.90
32877;DHT22;19226;51.600;8.034;2023-04-15T06:18:49;6.40;99.90
32877;DHT22;19226;51.600;8.034;2023-04-15T06:21:33;6.50;99.90
32877;DHT22;19226;51.600;8.034;2023-04-15T06:24:18;6.60;99.90
32877;DHT22;19226;51.600;8.034;2023-04-15T06:27:02;6.60;99.90
32877;DHT22;19226;51.600;8.034;2023-04-15T06:29:47;6.60;99.90
32877;DHT22;19226;51.600;8.034;2023-04-15T06:32:32;6.70;99.90
32877;DHT22;19226;51.600;8.034;2023-04-15T06:35:16;6.70;99.90
32877;DHT22;19226;51.600;8.034;2023-04-15T06:38:01;6.80;99.90
32877;DHT22;19226;51.600;8.034;2023-04-15T06:40:45;6.80;99.90
32877;DHT22;19226;51.600;8.034;2023-04-15T06:43:30;6.90;99.90
32877;DHT22;19226;51.600;8.034;2023-04-15T06:46:15;7.00;99.90
32877;DHT22;19226;51.600;8.034;2023-04-15T06:48:59;7.00;99.90
32877;DHT22;19226;51.600;8.034;2023-04-15T06:51:44;7.10;99.90
32877;DHT22;19226;51.600;8.034;2023-04-15T06:54:28;7.20;99.90
32877;DHT22;19226;51.600;8.034;2023-04-15T06:57:13;7.20;99.90
32877;DHT22;19226;51.600;8.034;2023-04-15T06:59:57;7.30;99.90
32877;DHT22;19226;51.600;8.034;2023-04-15T07:02:42;7.40;99.90
32877;DHT22;19226;51.600;8.034;2023-04-15T07:05:27;7.50;99.90
32877;DHT22;19226;51.600;8.034;2023-04-15T07:08:11;7.60;99.90
32877;DHT22;19226;51.600;8.034;2023-04-15T07:10:57;7.70;99.90
32877;DHT22;19226;51.600;8.034;2023-04-15T07:13:41;7.70;99.90
32877;DHT22;19226;51.600;8.034;2023-04-15T07:16:26;7.80;99.90
32877;DHT22;19226;51.600;8.034;2023-04-15T07:19:10;7.90;99.90
32877;DHT22;19226;51.600;8.034;2023-04-15T07:21:55;8.00;99.90
32877;DHT22;19226;51.600;8.034;2023-04-15T07:24:40;8.10;99.90
32877;DHT22;19226;51.600;8.034;2023-04-15T07:27:24;8.20;99.90
32877;DHT22;19226;51.600;8.034;2023-04-15T07:30:10;8.40;99.90
32877;DHT22;19226;51.600;8.034;2023-04-15T07:32:56;8.50;99.90
32877;DHT22;19226;51.600;8.034;2023-04-15T07:35:41;8.60;99.90
32877;DHT22;19226;51.600;8.034;2023-04-15T07:38:26;8.70;99.90
32877;DHT22;19226;51.600;8.034;2023-04-15T07:41:11;8.80;99.90
32877;DHT22;19226;51.600;8.034;2023-04-15T07:43:56;8.80;99.90
32877;DHT22;19226;51.600;8.034;2023-04-15T07:46:40;8.90;99.90
32877;DHT22;19226;51.600;8.034;2023-04-15T07:49:25;9.00;99.90
32877;DHT22;19226;51.600;8.034;2023-04-15T07:52:09;9.10;99.90
32877;DHT22;19226;51.600;8.034;2023-04-15T07:54:54;9.20;99.90
32877;DHT22;19226;51.600;8.034;2023-04-15T07:57:39;9.20;99.90
32877;DHT22;19226;51.600;8.034;2023-04-15T08:00:23;9.30;99.90
32877;DHT22;19226;51.600;8.034;2023-04-15T08:03:07;9.30;99.90
32877;DHT22;19226;51.600;8.034;2023-04-15T08:05:52;9.40;99.90
32877;DHT22;19226;51.600;8.034;2023-04-15T08:08:37;9.40;99.90
32877;DHT22;19226;51.600;8.034;2023-04-15T08:11:22;9.50;99.90
32877;DHT22;19226;51.600;8.034;2023-04-15T08:14:07;9.60;99.90
32877;DHT22;19226;51.600;8.034;2023-04-15T08:16:52;9.60;99.90
32877;DHT22;19226;51.600;8.034;2023-04-15T08:19:36;9.60;99.90
32877;DHT22;19226;51.600;8.034;2023-04-15T08:22:21;9.70;99.90
32877;DHT22;19226;51.600;8.034;2023-04-15T08:25:05;9.70;99.90
32877;DHT22;19226;51.600;8.034;2023-04-15T08:27:50;9.80;99.90
32877;DHT22;19226;51.600;8.034;2023-04-15T08:30:35;9.80;99.90
32877;DHT22;19226;51.600;8.034;2023-04-15T08:33:19;9.90;99.90
32877;DHT22;19226;51.600;8.034;2023-04-15T08:36:04;9.90;99.90
32877;DHT22;19226;51.600;8.034;2023-04-15T08:38:49;10.00;99.90
32877;DHT22;19226;51.600;8.034;2023-04-15T08:41:40;10.00;99.90
32877;DHT22;19226;51.600;8.034;2023-04-15T08:44:33;10.10;99.90
32877;DHT22;19226;51.600;8.034;2023-04-15T08:47:20;10.10;99.90
32877;DHT22;19226;51.600;8.034;2023-04-15T08:50:08;10.20;99.90
32877;DHT22;19226;51.600;8.034;2023-04-15T08:52:54;10.20;99.90
32877;DHT22;19226;51.600;8.034;2023-04-15T08:55:43;10.20;99.90
32877;DHT22;19226;51.600;8.034;2023-04-15T08:58:29;10.30;99.90
32877;DHT22;19226;51.600;8.034;2023-04-15T09:01:13;10.20;99.90
32877;DHT22;19226;51.600;8.034;2023-04-15T09:03:59;10.20;99.90
32877;DHT22;19226;51.600;8.034;2023-04-15T09:06:46;10.20;99.90
32877;DHT22;19226;51.600;8.034;2023-04-15T09:09:30;10.10;99.90
32877;DHT22;19226;51.600;8.034;2023-04-15T09:12:15;10.10;99.90
32877;DHT22;19226;51.600;8.034;2023-04-15T09:15:00;10.10;99.90
32877;DHT22;19226;51.600;8.034;2023-04-15T09:17:46;10.10;99.90
32877;DHT22;19226;51.600;8.034;2023-04-15T09:20:39;10.00;99.90
32877;DHT22;19226;51.600;8.034;2023-04-15T09:23:24;10.00;99.90
32877;DHT22;19226;51.600;8.034;2023-04-15T09:26:09;10.00;99.90
32877;DHT22;19226;51.600;8.034;2023-04-15T09:29:04;10.00;99.90
32877;DHT22;19226;51.600;8.034;2023-04-15T09:31:50;10.00;99.90
32877;DHT22;19226;51.600;8.034;2023-04-15T09:34:36;10.00;99.90
32877;DHT22;19226;51.600;8.034;2023-04-15T09:37:34;10.10;99.90
32877;DHT22;19226;51.600;8.034;2023-04-15T09:40:39;10.10;99.90
32877;DHT22;19226;51.600;8.034;2023-04-15T09:43:38;10.10;99.90
32877;DHT22;19226;51.600;8.034;2023-04-15T09:46:44;10.10;99.90
32877;DHT22;19226;51.600;8.034;2023-04-15T09:49:28;10.20;99.90
32877;DHT22;19226;51.600;8.034;2023-04-15T09:52:13;10.20;99.90
32877;DHT22;19226;51.600;8.034;2023-04-15T09:54:59;10.20;99.90
32877;DHT22;19226;51.600;8.034;2023-04-15T09:57:45;10.20;99.90
32877;DHT22;19226;51.600;8.034;2023-04-15T10:00:31;10.20;99.90
32877;DHT22;19226;51.600;8.034;2023-04-15T10:03:27;10.20;99.90
32877;DHT22;19226;51.600;8.034;2023-04-15T10:06:12;10.30;99.90
32877;DHT22;19226;51.600;8.034;2023-04-15T10:09:11;10.30;99.90
32877;DHT22;19226;51.600;8.034;2023-04-15T10:11:56;10.30;99.90
32877;DHT22;19226;51.600;8.034;2023-04-15T10:14:41;10.30;99.90
32877;DHT22;19226;51.600;8.034;2023-04-15T10:17:27;10.30;99.90
32877;DHT22;19226;51.600;8.034;2023-04-15T10:20:17;10.30;99.90
32877;DHT22;19226;51.600;8.034;2023-04-15T10:23:03;10.30;99.90
32877;DHT22;19226;51.600;8.034;2023-04-15T10:25:51;10.30;99.90
32877;DHT22;19226;51.600;8.034;2023-04-15T10:28:40;10.30;99.90
32877;DHT22;19226;51.600;8.034;2023-04-15T10:31:24;10.30;99.90
32877;DHT22;19226;51.600;8.034;2023-04-15T10:34:09;10.30;99.90
32877;DHT22;19226;51.600;8.034;2023-04-15T10:36:57;10.30;99.90
32877;DHT22;19226;51.600;8.034;2023-04-15T10:39:44;10.30;99.90
32877;DHT22;19226;51.600;8.034;2023-04-15T10:42:33;10.30;99.90
32877;DHT22;19226;51.600;8.034;2023-04-15T10:45:18;10.30;99.90
32877;DHT22;19226;51.600;8.034;2023-04-15T10:48:05;10.20;99.90
32877;DHT22;19226;51.600;8.034;2023-04-15T10:50:57;10.20;99.90
32877;DHT22;19226;51.600;8.034;2023-04-15T10:53:43;10.30;99.90
32877;DHT22;19226;51.600;8.034;2023-04-15T10:57:40;10.30;99.90
32877;DHT22;19226;51.600;8.034;2023-04-15T11:00:28;10.30;99.90
32877;DHT22;19226;51.600;8.034;2023-04-15T11:03:13;10.30;99.90
32877;DHT22;19226;51.600;8.034;2023-04-15T11:05:58;10.30;99.90
32877;DHT22;19226;51.600;8.034;2023-04-15T11:08:57;10.20;99.90
32877;DHT22;19226;51.600;8.034;2023-04-15T11:14:52;10.20;99.90
32877;DHT22;19226;51.600;8.034;2023-04-15T11:17:36;10.10;99.90
32877;DHT22;19226;51.600;8.034;2023-04-15T11:20:21;10.20;99.90
32877;DHT22;19226;51.600;8.034;2023-04-15T11:23:08;10.20;99.90
32877;DHT22;19226;51.600;8.034;2023-04-15T11:26:05;10.10;99.90
32877;DHT22;19226;51.600;8.034;2023-04-15T11:28:53;10.10;99.90
32877;DHT22;19226;51.600;8.034;2023-04-15T11:31:38;10.10;99.90
32877;DHT22;19226;51.600;8.034;2023-04-15T11:34:23;10.10;99.90
32877;DHT22;19226;51.600;8.034;2023-04-15T11:37:07;10.00;99.90
32877;DHT22;19226;51.600;8.034;2023-04-15T11:39:54;10.00;99.90
32877;DHT22;19226;51.600;8.034;2023-04-15T11:42:38;10.00;99.90
32877;DHT22;19226;51.600;8.034;2023-04-15T11:45:23;10.00;99.90
32877;DHT22;19226;51.600;8.034;2023-04-15T11:48:09;10.00;99.90
32877;DHT22;19226;51.600;8.034;2023-04-15T11:51:13;10.00;99.90
32877;DHT22;19226;51.600;8.034;2023-04-15T11:53:58;10.00;99.90
32877;DHT22;19226;51.600;8.034;2023-04-15T11:56:49;10.00;99.90
32877;DHT22;19226;51.600;8.034;2023-04-15T11:59:43;10.00;99.90
32877;DHT22;19226;51.600;8.034;2023-04-15T12:02:31;10.00;99.90
32877;DHT22;19226;51.600;8.034;2023-04-15T12:05:16;10.00;99.90
32877;DHT22;19226;51.600;8.034;2023-04-15T12:08:00;10.00;99.90
32877;DHT22;19226;51.600;8.034;2023-04-15T12:10:45;10.10;99.90
32877;DHT22;19226;51.600;8.034;2023-04-15T12:13:29;10.10;99.90
32877;DHT22;19226;51.600;8.034;2023-04-15T12:16:18;10.10;99.90
32877;DHT22;19226;51.600;8.034;2023-04-15T12:19:14;10.10;99.90
32877;DHT22;19226;51.600;8.034;2023-04-15T12:22:00;10.10;99.90
32877;DHT22;19226;51.600;8.034;2023-04-15T12:24:45;10.10;99.90
32877;DHT22;19226;51.600;8.034;2023-04-15T12:27:32;10.10;99.90
32877;DHT22;19226;51.600;8.034;2023-04-15T12:30:18;10.20;99.90
32877;DHT22;19226;51.600;8.034;2023-04-15T12:33:03;10.10;99.90
32877;DHT22;19226;51.600;8.034;2023-04-15T12:35:47;10.20;99.90
32877;DHT22;19226;51.600;8.034;2023-04-15T12:38:32;10.20;99.90
32877;DHT22;19226;51.600;8.034;2023-04-15T12:41:17;10.10;99.90
32877;DHT22;19226;51.600;8.034;2023-04-15T12:44:01;10.20;99.90
32877;DHT22;19226;51.600;8.034;2023-04-15T12:46:46;10.10;99.90
32877;DHT22;19226;51.600;8.034;2023-04-15T12:49:30;10.10;99.90
32877;DHT22;19226;51.600;8.034;2023-04-15T12:52:16;10.20;99.90
32877;DHT22;19226;51.600;8.034;2023-04-15T12:55:00;10.20;99.90
32877;DHT22;19226;51.600;8.034;2023-04-15T12:57:45;10.30;99.90
32877;DHT22;19226;51.600;8.034;2023-04-15T13:00:29;10.30;99.90
32877;DHT22;19226;51.600;8.034;2023-04-15T13:03:14;10.20;99.90
32877;DHT22;19226;51.600;8.034;2023-04-15T13:05:59;10.20;99.90
32877;DHT22;19226;51.600;8.034;2023-04-15T13:08:45;10.20;99.90
32877;DHT22;19226;51.600;8.034;2023-04-15T13:11:30;10.20;99.90
32877;DHT22;19226;51.600;8.034;2023-04-15T13:14:16;10.20;99.90
32877;DHT22;19226;51.600;8.034;2023-04-15T13:17:01;10.30;99.90
32877;DHT22;19226;51.600;8.034;2023-04-15T13:19:47;10.20;99.90
32877;DHT22;19226;51.600;8.034;2023-04-15T13:22:31;10.20;99.90
32877;DHT22;19226;51.600;8.034;2023-04-15T13:25:16;10.20;99.90
32877;DHT22;19226;51.600;8.034;2023-04-15T13:28:01;10.20;99.90
32877;DHT22;19226;51.600;8.034;2023-04-15T13:30:46;10.20;99.90
32877;DHT22;19226;51.600;8.034;2023-04-15T13:33:32;10.20;99.90
32877;DHT22;19226;51.600;8.034;2023-04-15T13:36:16;10.20;99.90
32877;DHT22;19226;51.600;8.034;2023-04-15T13:39:01;10.20;99.90
32877;DHT22;19226;51.600;8.034;2023-04-15T13:41:46;10.10;99.90
32877;DHT22;19226;51.600;8.034;2023-04-15T13:44:31;10.10;99.90
32877;DHT22;19226;51.600;8.034;2023-04-15T13:47:17;10.00;99.90
32877;DHT22;19226;51.600;8.034;2023-04-15T13:50:02;10.00;99.90
32877;DHT22;19226;51.600;8.034;2023-04-15T13:52:47;10.00;99.90
32877;DHT22;19226;51.600;8.034;2023-04-15T13:55:32;10.10;99.90
32877;DHT22;19226;51.600;8.034;2023-04-15T13:58:18;10.00;99.90
32877;DHT22;19226;51.600;8.034;2023-04-15T14:01:03;10.00;99.90
32877;DHT22;19226;51.600;8.034;2023-04-15T14:03:49;10.00;99.90
32877;DHT22;19226;51.600;8.034;2023-04-15T14:06:34;10.00;99.90
32877;DHT22;19226;51.600;8.034;2023-04-15T14:09:19;10.00;99.90
32877;DHT22;19226;51.600;8.034;2023-04-15T14:12:07;9.90;99.90
32877;DHT22;19226;51.600;8.034;2023-04-15T14:14:51;9.90;99.90
32877;DHT22;19226;51.600;8.034;2023-04-15T14:17:36;9.90;99.90
32877;DHT22;19226;51.600;8.034;2023-04-15T14:20:21;9.90;99.90
32877;DHT22;19226;51.600;8.034;2023-04-15T14:23:06;10.00;99.90
32877;DHT22;19226;51.600;8.034;2023-04-15T14:25:51;10.00;99.90
32877;DHT22;19226;51.600;8.034;2023-04-15T14:28:36;10.00;99.90
32877;DHT22;19226;51.600;8.034;2023-04-15T14:31:22;9.90;99.90
32877;DHT22;19226;51.600;8.034;2023-04-15T14:34:07;10.00;99.90
32877;DHT22;19226;51.600;8.034;2023-04-15T14:36:51;10.00;99.90
32877;DHT22;19226;51.600;8.034;2023-04-15T14:39:39;9.90;99.90
32877;DHT22;19226;51.600;8.034;2023-04-15T14:42:24;9.80;99.90
32877;DHT22;19226;51.600;8.034;2023-04-15T14:45:09;9.90;99.90
32877;DHT22;19226;51.600;8.034;2023-04-15T14:47:55;9.80;99.90
32877;DHT22;19226;51.600;8.034;2023-04-15T14:50:39;9.80;99.90
32877;DHT22;19226;51.600;8.034;2023-04-15T14:53:24;9.80;99.90
32877;DHT22;19226;51.600;8.034;2023-04-15T14:56:09;9.90;99.90
32877;DHT22;19226;51.600;8.034;2023-04-15T14:58:54;9.80;99.90
32877;DHT22;19226;51.600;8.034;2023-04-15T15:01:39;9.80;99.90
32877;DHT22;19226;51.600;8.034;2023-04-15T15:04:24;9.90;99.90
32877;DHT22;19226;51.600;8.034;2023-04-15T15:07:09;9.90;99.90
32877;DHT22;19226;51.600;8.034;2023-04-15T15:09:54;9.80;99.90
32877;DHT22;19226;51.600;8.034;2023-04-15T15:12:40;9.80;99.90
32877;DHT22;19226;51.600;8.034;2023-04-15T15:15:24;9.70;99.90
32877;DHT22;19226;51.600;8.034;2023-04-15T15:18:10;9.70;99.90
32877;DHT22;19226;51.600;8.034;2023-04-15T15:20:54;9.70;99.90
32877;DHT22;19226;51.600;8.034;2023-04-15T15:23:39;9.70;99.90
32877;DHT22;19226;51.600;8.034;2023-04-15T15:26:24;9.70;99.90
32877;DHT22;19226;51.600;8.034;2023-04-15T15:29:08;9.70;99.90
32877;DHT22;19226;51.600;8.034;2023-04-15T15:31:53;9.70;99.90
32877;DHT22;19226;51.600;8.034;2023-04-15T15:34:37;9.70;99.90
32877;DHT22;19226;51.600;8.034;2023-04-15T15:37:22;9.70;99.90
32877;DHT22;19226;51.600;8.034;2023-04-15T15:40:07;9.70;99.90
32877;DHT22;19226;51.600;8.034;2023-04-15T15:42:55;9.70;99.90
32877;DHT22;19226;51.600;8.034;2023-04-15T15:45:40;9.70;99.90
32877;DHT22;19226;51.600;8.034;2023-04-15T15:48:24;9.70;99.90
32877;DHT22;19226;51.600;8.034;2023-04-15T15:51:09;9.70;99.90
32877;DHT22;19226;51.600;8.034;2023-04-15T15:53:54;9.70;99.90
32877;DHT22;19226;51.600;8.034;2023-04-15T15:56:38;9.70;99.90
32877;DHT22;19226;51.600;8.034;2023-04-15T15:59:23;9.70;99.90
32877;DHT22;19226;51.600;8.034;2023-04-15T16:02:12;9.70;99.90
32877;DHT22;19226;51.600;8.034;2023-04-15T16:04:57;9.70;99.90
32877;DHT22;19226;51.600;8.034;2023-04-15T16:07:41;9.70;99.90
32877;DHT22;19226;51.600;8.034;2023-04-15T16:10:26;9.70;99.90
32877;DHT22;19226;51.600;8.034;2023-04-15T16:13:11;9.70;99.90
32877;DHT22;19226;51.600;8.034;2023-04-15T16:15:55;9.80;99.90
32877;DHT22;19226;51.600;8.034;2023-04-15T16:18:40;9.70;99.90
32877;DHT22;19226;51.600;8.034;2023-04-15T16:21:24;9.70;99.90
32877;DHT22;19226;51.600;8.034;2023-04-15T16:24:10;9.60;99.90
32877;DHT22;19226;51.600;8.034;2023-04-15T16:26:55;9.60;99.90
32877;DHT22;19226;51.600;8.034;2023-04-15T16:29:42;9.70;99.90
32877;DHT22;19226;51.600;8.034;2023-04-15T16:32:26;9.60;99.90
32877;DHT22;19226;51.600;8.034;2023-04-15T16:35:11;9.50;99.90
32877;DHT22;19226;51.600;8.034;2023-04-15T16:37:56;9.60;99.90
32877;DHT22;19226;51.600;8.034;2023-04-15T16:40:40;9.60;99.90
32877;DHT22;19226;51.600;8.034;2023-04-15T16:43:25;9.70;99.90
32877;DHT22;19226;51.600;8.034;2023-04-15T16:46:10;9.60;99.90
32877;DHT22;19226;51.600;8.034;2023-04-15T16:48:55;9.70;99.90
32877;DHT22;19226;51.600;8.034;2023-04-15T16:51:39;9.60;99.90
32877;DHT22;19226;51.600;8.034;2023-04-15T16:54:24;9.60;99.90
32877;DHT22;19226;51.600;8.034;2023-04-15T16:57:08;9.60;99.90
32877;DHT22;19226;51.600;8.034;2023-04-15T16:59:53;9.60;99.90
32877;DHT22;19226;51.600;8.034;2023-04-15T17:02:37;9.60;99.90
32877;DHT22;19226;51.600;8.034;2023-04-15T17:05:22;9.60;99.90
32877;DHT22;19226;51.600;8.034;2023-04-15T17:08:07;9.60;99.90
32877;DHT22;19226;51.600;8.034;2023-04-15T17:10:51;9.50;99.90
32877;DHT22;19226;51.600;8.034;2023-04-15T17:13:36;9.50;99.90
32877;DHT22;19226;51.600;8.034;2023-04-15T17:16:21;9.60;99.90
32877;DHT22;19226;51.600;8.034;2023-04-15T17:19:08;9.60;99.90
32877;DHT22;19226;51.600;8.034;2023-04-15T17:21:53;9.50;99.90
32877;DHT22;19226;51.600;8.034;2023-04-15T17:24:37;9.50;99.90
32877;DHT22;19226;51.600;8.034;2023-04-15T17:27:22;9.50;99.90
32877;DHT22;19226;51.600;8.034;2023-04-15T17:30:08;9.50;99.90
32877;DHT22;19226;51.600;8.034;2023-04-15T17:32:52;9.40;99.90
32877;DHT22;19226;51.600;8.034;2023-04-15T17:35:38;9.40;99.90
32877;DHT22;19226;51.600;8.034;2023-04-15T17:38:23;9.40;99.90
32877;DHT22;19226;51.600;8.034;2023-04-15T17:41:07;9.40;99.90